createdAt,value
2018-10-19T00:00:49.558Z,24.40
2018-10-19T00:02:53.633Z,28.00
2018-10-19T00:04:57.410Z,26.47
2018-10-19T00:07:01.100Z,26.83
2018-10-19T00:09:07.003Z,25.77
2018-10-19T00:11:10.664Z,23.70
2018-10-19T00:13:14.450Z,27.60
2018-10-19T00:15:18.182Z,26.50
2018-10-19T00:17:21.876Z,24.07
2018-10-19T00:19:25.667Z,25.03
2018-10-19T00:21:29.353Z,25.53
2018-10-19T00:23:33.136Z,23.20
2018-10-19T00:25:36.821Z,23.43
2018-10-19T00:27:40.701Z,24.90
2018-10-19T00:29:46.023Z,24.47
2018-10-19T00:31:56.768Z,24.23
2018-10-19T00:34:00.548Z,24.00
2018-10-19T00:36:04.415Z,23.80
2018-10-19T00:38:08.377Z,23.43
2018-10-19T00:40:12.325Z,23.53
2018-10-19T00:42:16.061Z,24.10
2018-10-19T00:44:20.316Z,23.07
2018-10-19T00:46:24.079Z,23.43
2018-10-19T00:48:27.857Z,24.53
2018-10-19T00:50:31.694Z,21.83
2018-10-19T00:52:35.384Z,22.87
2018-10-19T00:54:39.109Z,23.50
2018-10-19T00:56:42.807Z,23.40
2018-10-19T00:58:46.553Z,22.87
2018-10-19T01:00:50.359Z,22.67
2018-10-19T01:02:54.138Z,21.80
2018-10-19T01:04:57.938Z,21.13
2018-10-19T01:07:01.612Z,22.73
2018-10-19T01:09:06.663Z,21.47
2018-10-19T01:11:10.431Z,19.87
2018-10-19T01:13:14.107Z,19.80
2018-10-19T01:15:17.876Z,20.97
2018-10-19T01:17:21.549Z,19.93
2018-10-19T01:19:25.253Z,18.97
2018-10-19T01:21:28.992Z,20.50
2018-10-19T01:23:32.713Z,20.47
2018-10-19T01:25:40.559Z,19.40
2018-10-19T01:27:44.286Z,19.00
2018-10-19T01:29:48.040Z,18.50
2018-10-19T01:31:52.350Z,19.90
2018-10-19T01:33:56.061Z,18.77
2018-10-19T01:35:59.811Z,17.70
2018-10-19T01:38:03.648Z,17.30
2018-10-19T01:40:09.196Z,17.93
2018-10-19T01:42:12.976Z,19.20
2018-10-19T01:44:16.703Z,17.93
2018-10-19T01:46:20.392Z,19.10
2018-10-19T01:48:24.378Z,18.43
2018-10-19T01:50:28.113Z,19.13
2018-10-19T01:52:31.822Z,17.10
2018-10-19T01:54:35.561Z,19.10
2018-10-19T01:56:39.365Z,16.47
2018-10-19T01:58:43.062Z,18.50
2018-10-19T02:00:46.888Z,18.33
2018-10-19T02:02:50.567Z,18.77
2018-10-19T02:04:54.355Z,16.70
2018-10-19T02:06:58.091Z,15.83
2018-10-19T02:09:01.785Z,17.50
2018-10-19T02:11:05.613Z,15.97
2018-10-19T02:13:10.206Z,17.40
2018-10-19T02:15:13.996Z,16.70
2018-10-19T02:17:17.652Z,16.97
2018-10-19T02:19:21.344Z,18.30
2018-10-19T02:21:25.102Z,16.73
2018-10-19T02:23:28.822Z,15.90
2018-10-19T02:25:32.582Z,16.10
2018-10-19T02:27:36.927Z,17.17
2018-10-19T02:29:40.625Z,16.43
2018-10-19T02:31:44.332Z,15.10
2018-10-19T02:33:48.046Z,15.57
2018-10-19T02:35:51.820Z,17.10
2018-10-19T02:37:55.546Z,14.73
2018-10-19T02:39:59.312Z,17.00
2018-10-19T02:42:03.184Z,16.10
2018-10-19T02:44:06.881Z,16.97
2018-10-19T02:46:10.593Z,15.60
2018-10-19T02:48:14.312Z,15.70
2018-10-19T02:50:18.048Z,15.57
2018-10-19T02:52:21.861Z,16.27
2018-10-19T02:54:25.792Z,16.27
2018-10-19T02:56:29.509Z,15.80
2018-10-19T02:58:33.389Z,15.57
2018-10-19T03:00:37.148Z,15.43
2018-10-19T03:02:41.478Z,16.20
2018-10-19T03:04:45.164Z,17.53
2018-10-19T03:06:48.900Z,15.57
2018-10-19T03:08:52.616Z,14.70
2018-10-19T03:10:56.344Z,16.80
2018-10-19T03:13:00.303Z,15.47
2018-10-19T03:15:04.312Z,15.37
2018-10-19T03:17:08.062Z,14.60
2018-10-19T03:19:11.833Z,15.33
2018-10-19T03:21:16.339Z,15.90
2018-10-19T03:23:20.020Z,14.20
2018-10-19T03:25:23.781Z,15.17
2018-10-19T03:27:27.563Z,15.40
2018-10-19T03:29:31.245Z,15.97
2018-10-19T03:31:34.969Z,15.47
2018-10-19T03:33:38.690Z,14.90
2018-10-19T03:35:42.397Z,14.20
2018-10-19T03:37:46.113Z,14.90
2018-10-19T03:39:50.150Z,14.37
2018-10-19T03:41:54.387Z,14.47
2018-10-19T03:43:59.318Z,13.70
2018-10-19T03:46:03.035Z,15.10
2018-10-19T03:48:06.857Z,16.10
2018-10-19T03:50:10.976Z,14.43
2018-10-19T03:52:14.706Z,13.77
2018-10-19T03:54:18.537Z,14.23
2018-10-19T03:56:22.466Z,14.60
2018-10-19T03:58:26.182Z,14.40
2018-10-19T04:00:29.963Z,14.70
2018-10-19T04:02:33.734Z,15.50
2018-10-19T04:04:37.500Z,15.03
2018-10-19T04:06:41.189Z,14.83
2018-10-19T04:08:45.206Z,15.30
2018-10-19T04:10:48.925Z,14.40
2018-10-19T04:12:52.664Z,15.87
2018-10-19T04:14:56.398Z,16.63
2018-10-19T04:17:00.178Z,16.10
2018-10-19T04:19:04.026Z,16.70
2018-10-19T04:21:07.736Z,15.93
2018-10-19T04:23:11.527Z,17.80
2018-10-19T04:25:15.206Z,17.47
2018-10-19T04:27:18.928Z,18.70
2018-10-19T04:29:22.693Z,17.50
2018-10-19T04:31:26.392Z,16.83
2018-10-19T04:33:30.378Z,16.90
2018-10-19T04:35:34.176Z,17.00
2018-10-19T04:37:37.912Z,17.10
2018-10-19T04:39:41.657Z,18.90
2018-10-19T04:41:45.503Z,17.13
2018-10-19T04:43:49.258Z,16.93
2018-10-19T04:45:53.003Z,16.83
2018-10-19T04:47:57.924Z,16.63
2018-10-19T04:50:01.700Z,17.83
2018-10-19T04:52:05.721Z,17.43
2018-10-19T04:54:09.476Z,17.97
2018-10-19T04:56:14.180Z,15.83
2018-10-19T04:58:18.126Z,14.10
2018-10-19T05:00:22.352Z,14.27
2018-10-19T05:02:26.617Z,14.87
2018-10-19T05:04:30.404Z,15.23
2018-10-19T05:06:34.360Z,14.50
2018-10-19T05:08:38.173Z,13.80
2018-10-19T05:10:41.961Z,13.87
2018-10-19T05:12:46.090Z,14.80
2018-10-19T05:14:49.975Z,17.27
2018-10-19T05:16:53.886Z,16.80
2018-10-19T05:18:57.722Z,15.00
2018-10-19T05:21:01.545Z,15.23
2018-10-19T05:23:05.866Z,16.13
2018-10-19T05:25:12.343Z,16.67
2018-10-19T05:27:16.224Z,16.03
2018-10-19T05:29:19.993Z,15.50
2018-10-19T05:31:24.749Z,17.20
2018-10-19T05:33:28.526Z,16.20
2018-10-19T05:35:32.320Z,15.50
2018-10-19T05:37:36.638Z,15.07
2018-10-19T05:39:40.493Z,17.13
2018-10-19T05:41:44.322Z,16.20
2018-10-19T05:43:48.099Z,16.03
2018-10-19T05:45:52.004Z,14.00
2018-10-19T05:47:55.936Z,18.57
2018-10-19T05:50:00.241Z,16.60
2018-10-19T05:52:04.304Z,17.03
2018-10-19T05:54:08.349Z,16.73
2018-10-19T05:56:12.536Z,14.50
2018-10-19T05:58:16.427Z,14.30
2018-10-19T06:00:20.949Z,15.23
2018-10-19T06:02:25.177Z,15.13
2018-10-19T06:04:29.181Z,15.57
2018-10-19T06:06:33.164Z,14.30
2018-10-19T06:08:37.641Z,14.97
2018-10-19T06:10:41.625Z,15.37
2018-10-19T06:12:45.603Z,15.57
2018-10-19T06:14:49.681Z,13.67
2018-10-19T06:16:54.209Z,14.83
2018-10-19T06:18:58.294Z,15.43
2018-10-19T06:21:02.692Z,15.10
2018-10-19T06:23:06.893Z,15.47
2018-10-19T06:25:10.904Z,15.23
2018-10-19T06:27:14.980Z,16.03
2018-10-19T06:29:19.064Z,14.03
2018-10-19T06:31:23.104Z,15.00
2018-10-19T06:33:27.176Z,14.87
2018-10-19T06:35:31.405Z,13.70
2018-10-19T06:37:35.487Z,15.30
2018-10-19T06:41:58.468Z,15.37
2018-10-19T06:44:02.501Z,15.00
2018-10-19T06:46:06.728Z,15.73
2018-10-19T06:48:10.791Z,13.90
2018-10-19T06:50:14.945Z,13.53
2018-10-19T06:52:18.879Z,14.10
2018-10-19T06:54:23.028Z,14.57
2018-10-19T06:56:26.970Z,14.07
2018-10-19T06:58:31.199Z,13.33
2018-10-19T07:00:35.189Z,14.70
2018-10-19T07:02:39.279Z,14.13
2018-10-19T07:04:44.119Z,13.13
2018-10-19T07:06:48.325Z,13.03
2018-10-19T07:08:52.453Z,14.90
2018-10-19T07:10:57.096Z,13.57
2018-10-19T07:13:01.202Z,15.00
2018-10-19T07:15:06.673Z,15.77
2018-10-19T07:17:10.798Z,15.50
2018-10-19T07:19:14.781Z,16.33
2018-10-19T07:21:19.305Z,16.10
2018-10-19T07:23:23.396Z,18.07
2018-10-19T07:25:27.859Z,20.10
2018-10-19T07:27:32.365Z,20.00
2018-10-19T07:29:36.526Z,19.60
2018-10-19T07:31:40.662Z,21.30
2018-10-19T07:33:44.651Z,18.20
2018-10-19T07:35:48.802Z,19.87
2018-10-19T07:37:53.768Z,19.40
2018-10-19T07:39:57.909Z,20.20
2018-10-19T07:42:02.157Z,21.20
2018-10-19T07:44:06.549Z,20.73
2018-10-19T07:46:10.578Z,21.13
2018-10-19T07:48:14.856Z,20.60
2018-10-19T07:50:18.918Z,21.60
2018-10-19T07:52:23.031Z,22.40
2018-10-19T07:54:27.063Z,21.70
2018-10-19T07:56:31.128Z,22.90
2018-10-19T07:58:35.296Z,23.80
2018-10-19T08:00:39.266Z,20.37
2018-10-19T08:02:43.327Z,20.97
2018-10-19T08:04:47.282Z,18.27
2018-10-19T08:06:51.236Z,23.27
2018-10-19T08:08:55.265Z,24.80
2018-10-19T08:10:59.423Z,24.17
2018-10-19T08:13:04.008Z,23.97
2018-10-19T08:15:09.206Z,20.93
2018-10-19T08:17:13.259Z,22.83
2018-10-19T08:19:17.241Z,24.20
2018-10-19T08:21:22.236Z,24.07
2018-10-19T08:23:26.270Z,25.87
2018-10-19T08:25:30.352Z,24.33
2018-10-19T08:27:34.399Z,24.60
2018-10-19T08:29:38.398Z,24.47
2018-10-19T08:31:42.670Z,23.10
2018-10-19T08:33:46.711Z,23.20
2018-10-19T08:35:50.720Z,25.13
2018-10-19T08:37:54.906Z,22.03
2018-10-19T08:39:59.515Z,24.97
2018-10-19T08:42:03.631Z,22.67
2018-10-19T08:44:07.620Z,23.30
2018-10-19T08:46:16.771Z,26.47
2018-10-19T08:48:20.892Z,25.40
2018-10-19T08:50:24.885Z,26.20
2018-10-19T08:52:30.029Z,24.67
2018-10-19T08:54:34.151Z,26.33
2018-10-19T08:56:38.702Z,28.20
2018-10-19T08:58:42.753Z,26.93
2018-10-19T09:00:46.718Z,27.07
2018-10-19T09:02:50.783Z,28.67
2018-10-19T09:04:54.893Z,29.50
2018-10-19T09:06:58.866Z,28.37
2018-10-19T09:09:03.025Z,27.40
2018-10-19T09:11:07.287Z,30.53
2018-10-19T09:13:11.684Z,30.10
2018-10-19T09:15:15.772Z,30.83
2018-10-19T09:17:19.853Z,28.90
2018-10-19T09:19:23.877Z,29.37
2018-10-19T09:21:27.920Z,33.23
2018-10-19T09:23:32.029Z,31.07
2018-10-19T09:25:36.497Z,31.63
2018-10-19T09:27:40.606Z,33.50
2018-10-19T09:29:44.770Z,30.80
2018-10-19T09:31:48.775Z,32.80
2018-10-19T09:33:53.273Z,30.27
2018-10-19T09:35:57.377Z,32.23
2018-10-19T09:38:01.323Z,33.23
2018-10-19T09:40:05.541Z,31.63
2018-10-19T09:42:10.110Z,32.60
2018-10-19T09:44:13.701Z,31.07
2018-10-19T09:46:17.537Z,29.60
2018-10-19T09:48:21.251Z,33.60
2018-10-19T09:50:25.118Z,30.37
2018-10-19T09:52:28.845Z,30.50
2018-10-19T09:54:33.404Z,32.13
2018-10-19T09:56:37.158Z,32.33
2018-10-19T09:58:40.844Z,32.80
2018-10-19T10:00:49.964Z,31.97
2018-10-19T10:02:53.771Z,30.50
2018-10-19T10:04:57.520Z,31.87
2018-10-19T10:07:01.255Z,30.20
2018-10-19T10:09:13.373Z,30.67
2018-10-19T10:11:17.345Z,32.00
2018-10-19T10:13:21.113Z,34.90
2018-10-19T10:15:24.965Z,31.23
2018-10-19T10:17:28.590Z,33.30
2018-10-19T10:19:32.292Z,31.40
2018-10-19T10:21:36.067Z,35.97
2018-10-19T10:23:39.908Z,31.00
2018-10-19T10:25:43.786Z,31.10
2018-10-19T10:27:47.603Z,30.70
2018-10-19T10:29:51.306Z,29.73
2018-10-19T10:31:55.103Z,30.93
2018-10-19T10:33:59.034Z,29.87
2018-10-19T10:36:02.878Z,28.30
2018-10-19T10:38:06.943Z,29.67
2018-10-19T10:40:11.059Z,31.20
2018-10-19T10:42:15.381Z,29.07
2018-10-19T10:44:19.090Z,31.17
2018-10-19T10:46:22.955Z,32.03
2018-10-19T10:48:26.635Z,31.40
2018-10-19T10:50:31.066Z,31.20
2018-10-19T10:52:34.761Z,29.37
2018-10-19T10:54:38.504Z,29.60
2018-10-19T10:56:42.238Z,30.60
2018-10-19T10:58:45.932Z,32.13
2018-10-19T11:00:49.672Z,31.60
2018-10-19T11:02:53.396Z,30.20
2018-10-19T11:04:57.111Z,30.17
2018-10-19T11:07:00.939Z,29.53
2018-10-19T11:09:05.953Z,28.97
2018-10-19T11:11:12.747Z,35.07
2018-10-19T11:13:16.540Z,32.00
2018-10-19T11:15:20.266Z,30.37
2018-10-19T11:17:24.005Z,29.70
2018-10-19T11:19:27.741Z,31.80
2018-10-19T11:21:31.514Z,31.43
2018-10-19T11:23:35.325Z,31.60
2018-10-19T11:25:39.019Z,30.67
2018-10-19T11:27:42.795Z,28.40
2018-10-19T11:29:46.496Z,31.53
2018-10-19T11:31:50.211Z,30.37
2018-10-19T11:33:53.958Z,29.53
2018-10-19T11:35:58.267Z,28.57
2018-10-19T11:38:02.175Z,30.87
2018-10-19T11:40:31.239Z,31.73
2018-10-19T11:42:34.992Z,32.77
2018-10-19T11:44:38.750Z,32.90
2018-10-19T11:46:42.492Z,31.57
2018-10-19T11:48:46.292Z,31.20
2018-10-19T11:50:49.973Z,31.90
2018-10-19T11:52:53.694Z,30.77
2018-10-19T11:54:57.414Z,32.30
2018-10-19T11:57:01.182Z,28.10
2018-10-19T11:59:05.279Z,31.30
2018-10-19T12:01:09.107Z,33.70
2018-10-19T12:03:12.801Z,31.80
2018-10-19T12:05:16.506Z,30.30
2018-10-19T12:07:20.557Z,32.20
2018-10-19T12:09:25.097Z,30.00
2018-10-19T12:11:29.232Z,30.67
2018-10-19T12:13:32.934Z,29.80
2018-10-19T12:15:36.628Z,28.23
2018-10-19T12:17:41.364Z,28.80
2018-10-19T12:19:45.024Z,28.30
2018-10-19T12:21:48.741Z,29.37
2018-10-19T12:23:52.493Z,31.30
2018-10-19T12:25:56.242Z,29.83
2018-10-19T12:27:59.961Z,32.20
2018-10-19T12:30:03.772Z,29.83
2018-10-19T12:32:08.195Z,28.27
2018-10-19T12:34:11.991Z,29.37
2018-10-19T12:36:15.721Z,27.83
2018-10-19T12:38:19.619Z,30.37
2018-10-19T12:40:23.402Z,28.60
2018-10-19T12:42:27.871Z,28.13
2018-10-19T12:44:32.443Z,29.80
2018-10-19T12:46:48.684Z,29.70
2018-10-19T12:48:52.524Z,30.07
2018-10-19T12:50:56.418Z,31.10
2018-10-19T12:53:00.128Z,31.33
2018-10-19T12:55:04.077Z,29.77
2018-10-19T12:57:09.756Z,29.20
2018-10-19T12:59:13.546Z,30.10
2018-10-19T13:01:17.417Z,30.23
2018-10-19T13:03:21.254Z,28.90
2018-10-19T13:05:24.970Z,29.77
2018-10-19T13:07:28.860Z,30.30
2018-10-19T13:09:32.664Z,30.50
2018-10-19T13:11:36.527Z,29.50
2018-10-19T13:13:40.238Z,28.50
2018-10-19T13:15:44.101Z,28.63
2018-10-19T13:17:47.926Z,27.07
2018-10-19T13:19:51.890Z,32.13
2018-10-19T13:21:55.966Z,29.97
2018-10-19T13:24:00.991Z,29.43
2018-10-19T13:26:04.924Z,28.80
2018-10-19T13:28:08.843Z,29.10
2018-10-19T13:30:13.183Z,28.90
2018-10-19T13:32:17.018Z,26.23
2018-10-19T13:34:21.438Z,29.57
2018-10-19T13:36:25.104Z,30.90
2018-10-19T13:38:28.873Z,32.87
2018-10-19T13:40:34.953Z,29.43
2018-10-19T13:42:38.698Z,29.23
2018-10-19T13:44:42.432Z,29.70
2018-10-19T13:46:46.133Z,29.00
2018-10-19T13:48:50.076Z,28.13
2018-10-19T13:50:53.917Z,29.00
2018-10-19T13:52:57.775Z,28.80
2018-10-19T13:55:01.795Z,28.57
2018-10-19T13:57:05.975Z,29.03
2018-10-19T13:59:09.780Z,27.30
2018-10-19T14:01:13.425Z,29.03
2018-10-19T14:03:17.165Z,30.50
2018-10-19T14:05:20.959Z,28.50
2018-10-19T14:07:26.014Z,30.87
2018-10-19T14:09:30.481Z,28.33
2018-10-19T14:11:34.176Z,28.67
2018-10-19T14:13:37.944Z,28.40
2018-10-19T14:15:41.653Z,27.67
2018-10-19T14:17:45.376Z,28.73
2018-10-19T14:19:49.193Z,28.37
2018-10-19T14:21:52.890Z,28.10
2018-10-19T14:23:56.636Z,30.27
2018-10-19T14:26:00.836Z,30.97
2018-10-19T14:28:04.605Z,30.07
2018-10-19T14:30:10.674Z,29.50
2018-10-19T14:32:15.370Z,30.37
2018-10-19T14:34:19.814Z,29.13
2018-10-19T14:36:24.381Z,28.10
2018-10-19T14:38:28.584Z,26.80
2018-10-19T14:40:32.389Z,30.50
2018-10-19T14:42:36.220Z,27.20
2018-10-19T14:44:40.261Z,27.87
2018-10-19T14:46:43.962Z,26.80
2018-10-19T14:48:47.876Z,27.70
2018-10-19T14:50:51.842Z,27.33
2018-10-19T14:52:55.615Z,28.90
2018-10-19T14:54:59.441Z,28.67
2018-10-19T14:57:03.268Z,29.10
2018-10-19T14:59:07.091Z,26.13
2018-10-19T15:01:10.873Z,27.33
2018-10-19T15:03:14.863Z,29.07
2018-10-19T15:05:19.753Z,28.03
2018-10-19T15:07:23.473Z,27.90
2018-10-19T15:09:27.366Z,28.00
2018-10-19T15:11:31.211Z,28.90
2018-10-19T15:13:34.872Z,27.07
2018-10-19T15:15:38.812Z,27.07
2018-10-19T15:17:42.753Z,28.50
2018-10-19T15:19:46.534Z,28.23
2018-10-19T15:21:50.285Z,26.50
2018-10-19T15:23:54.086Z,28.33
2018-10-19T15:25:57.822Z,27.13
2018-10-19T15:28:01.574Z,27.47
2018-10-19T15:30:06.138Z,26.97
2018-10-19T15:32:09.856Z,27.60
2018-10-19T15:34:13.609Z,28.33
2018-10-19T15:36:17.582Z,25.47
2018-10-19T15:38:21.757Z,25.87
2018-10-19T15:40:25.650Z,25.80
2018-10-19T15:42:29.472Z,27.27
2018-10-19T15:44:33.834Z,26.17
2018-10-19T15:46:38.134Z,26.10
2018-10-19T15:48:42.588Z,27.53
2018-10-19T15:50:47.572Z,30.60
2018-10-19T15:52:51.284Z,26.90
2018-10-19T15:54:56.163Z,25.67
2018-10-19T15:57:00.356Z,24.73
2018-10-19T15:59:04.105Z,26.67
2018-10-19T16:01:07.825Z,25.53
2018-10-19T16:03:12.376Z,26.30
2018-10-19T16:05:16.325Z,24.27
2018-10-19T16:07:20.240Z,25.87
2018-10-19T16:09:25.598Z,24.20
2018-10-19T16:11:29.670Z,26.43
2018-10-19T16:13:34.195Z,25.50
2018-10-19T16:15:38.445Z,25.77
2018-10-19T16:17:42.276Z,26.40
2018-10-19T16:19:45.934Z,26.73
2018-10-19T16:21:50.643Z,25.40
2018-10-19T16:23:54.410Z,27.00
2018-10-19T16:25:59.149Z,26.90
2018-10-19T16:28:03.007Z,26.80
2018-10-19T16:30:08.844Z,25.27
2018-10-19T16:32:12.566Z,25.93
2018-10-19T16:34:16.411Z,24.53
2018-10-19T16:36:20.235Z,26.07
2018-10-19T16:38:24.165Z,26.03
2018-10-19T16:40:27.880Z,24.93
2018-10-19T16:42:31.676Z,24.27
2018-10-19T16:44:35.456Z,26.23
2018-10-19T16:46:39.270Z,25.17
2018-10-19T16:48:43.770Z,24.77
2018-10-19T16:50:47.536Z,24.63
2018-10-19T16:52:52.372Z,25.67
2018-10-19T16:54:56.117Z,24.43
2018-10-19T16:56:59.871Z,22.00
2018-10-19T16:59:03.649Z,21.17
2018-10-19T17:01:07.442Z,22.00
2018-10-19T17:03:11.188Z,22.33
2018-10-19T17:05:15.328Z,21.73
2018-10-19T17:07:21.757Z,24.20
2018-10-19T17:09:27.463Z,24.23
2018-10-19T17:11:32.568Z,25.37
2018-10-19T17:13:36.279Z,23.97
2018-10-19T17:15:39.944Z,24.17
2018-10-19T17:17:45.576Z,25.20
2018-10-19T17:19:49.323Z,25.40
2018-10-19T17:21:55.787Z,25.90
2018-10-19T17:24:01.163Z,25.83
2018-10-19T17:26:05.377Z,25.43
2018-10-19T17:28:11.746Z,25.37
2018-10-19T17:30:17.414Z,30.00
2018-10-19T17:32:21.119Z,28.80
2018-10-19T17:34:24.880Z,31.60
2018-10-19T17:36:28.874Z,34.57
2018-10-19T17:38:33.955Z,36.30
2018-10-19T17:40:38.128Z,38.10
2018-10-19T17:42:42.887Z,37.17
2018-10-19T17:44:47.107Z,31.63
2018-10-19T17:46:53.310Z,29.77
2018-10-19T17:48:57.273Z,27.97
2018-10-19T17:51:02.029Z,28.07
2018-10-19T17:53:06.912Z,25.67
2018-10-19T17:55:13.405Z,24.23
2018-10-19T17:57:17.188Z,23.33
2018-10-19T17:59:21.888Z,25.23
2018-10-19T18:01:26.129Z,23.60
2018-10-19T18:03:29.879Z,21.87
2018-10-19T18:05:33.598Z,23.60
2018-10-19T18:07:37.417Z,22.97
2018-10-19T18:09:41.687Z,23.97
2018-10-19T18:11:48.394Z,23.57
2018-10-19T18:13:53.965Z,22.80
2018-10-19T18:15:59.013Z,23.87
2018-10-19T18:18:02.700Z,24.30
2018-10-19T18:20:09.220Z,25.03
2018-10-19T18:22:13.221Z,24.57
2018-10-19T18:24:16.880Z,23.20
2018-10-19T18:26:20.616Z,22.77
2018-10-19T18:28:25.144Z,22.60
2018-10-19T18:30:28.934Z,24.80
2018-10-19T18:32:34.555Z,23.80
2018-10-19T18:34:38.304Z,24.03
2018-10-19T18:36:43.187Z,25.93
2018-10-19T18:38:47.196Z,27.20
2018-10-19T18:40:52.719Z,24.97
2018-10-19T18:42:57.210Z,23.97
2018-10-19T18:45:01.869Z,26.37
2018-10-19T18:47:07.247Z,25.53
2018-10-19T18:49:11.580Z,24.17
2018-10-19T18:51:16.569Z,23.23
2018-10-19T18:53:21.177Z,23.40
2018-10-19T18:55:26.098Z,24.60
2018-10-19T18:57:29.863Z,22.80
2018-10-19T18:59:33.623Z,22.67
2018-10-19T19:01:37.450Z,23.33
2018-10-19T19:03:41.236Z,22.30
2018-10-19T19:05:46.205Z,22.80
2018-10-19T19:07:50.242Z,23.50
2018-10-19T19:09:59.586Z,23.33
2018-10-19T19:12:03.381Z,24.87
2018-10-19T19:14:07.201Z,24.90
2018-10-19T19:16:17.062Z,25.83
2018-10-19T19:18:20.797Z,25.87
2018-10-19T19:20:28.040Z,26.87
2018-10-19T19:22:32.836Z,25.97
2018-10-19T19:24:41.873Z,25.27
2018-10-19T19:26:46.364Z,25.97
2018-10-19T19:28:50.121Z,25.80
2018-10-19T19:30:53.880Z,23.57
2018-10-19T19:33:05.416Z,26.57
2018-10-19T19:35:09.231Z,23.80
2018-10-19T19:37:12.900Z,23.40
2018-10-19T19:39:16.987Z,24.77
2018-10-19T19:41:25.954Z,23.73
2018-10-19T19:43:29.722Z,24.70
2018-10-19T19:45:33.597Z,26.00
2018-10-19T19:47:43.073Z,26.33
2018-10-19T19:49:47.033Z,31.77
2018-10-19T19:51:50.999Z,32.30
2018-10-19T19:53:54.944Z,47.30
2018-10-19T19:55:58.807Z,66.70
2018-10-19T19:58:03.217Z,65.33
2018-10-19T20:00:08.987Z,53.60
2018-10-19T20:02:13.707Z,47.03
2018-10-19T20:04:17.645Z,42.07
2018-10-19T20:06:21.387Z,35.50
2018-10-19T20:08:25.264Z,31.00
2018-10-19T20:10:29.143Z,30.87
2018-10-19T20:12:33.061Z,30.10
2018-10-19T20:14:36.868Z,27.53
2018-10-19T20:16:41.028Z,27.20
2018-10-19T20:18:44.722Z,26.27
2018-10-19T20:20:48.857Z,26.73
2018-10-19T20:22:53.164Z,25.70
2018-10-19T20:24:57.644Z,22.90
2018-10-19T20:27:01.489Z,25.37
2018-10-19T20:29:05.431Z,26.60
2018-10-19T20:31:11.326Z,24.97
2018-10-19T20:33:19.279Z,24.93
2018-10-19T20:35:27.143Z,23.60
2018-10-19T20:37:31.235Z,25.33
2018-10-19T20:39:35.033Z,24.63
2018-10-19T20:41:39.608Z,24.03
2018-10-19T20:43:43.339Z,26.13
2018-10-19T20:45:47.265Z,24.33
2018-10-19T20:47:51.236Z,24.30
2018-10-19T20:49:55.010Z,25.97
2018-10-19T20:51:58.970Z,27.00
2018-10-19T20:54:03.066Z,25.27
2018-10-19T20:56:06.892Z,26.50
2018-10-19T20:58:10.555Z,25.73
2018-10-19T21:00:15.117Z,24.93
2018-10-19T21:02:18.916Z,25.10
2018-10-19T21:04:22.733Z,26.60
2018-10-19T21:06:26.540Z,28.37
2018-10-19T21:08:30.232Z,28.80
2018-10-19T21:10:33.944Z,24.97
2018-10-19T21:12:37.876Z,25.90
2018-10-19T21:14:41.638Z,26.53
2018-10-19T21:16:45.331Z,25.53
2018-10-19T21:18:48.998Z,25.87
2018-10-19T21:20:52.753Z,25.13
2018-10-19T21:22:56.521Z,24.27
2018-10-19T21:25:00.268Z,26.40
2018-10-19T21:27:04.062Z,26.20
2018-10-19T21:29:07.815Z,23.73
2018-10-19T21:31:11.494Z,25.43
2018-10-19T21:33:15.183Z,25.70
2018-10-19T21:35:18.941Z,25.07
2018-10-19T21:37:22.651Z,26.70
2018-10-19T21:39:26.387Z,25.13
2018-10-19T21:41:30.111Z,25.43
2018-10-19T21:43:33.815Z,26.57
2018-10-19T21:45:37.547Z,30.30
2018-10-19T21:47:41.218Z,29.93
2018-10-19T21:49:44.910Z,26.07
2018-10-19T21:51:48.798Z,28.17
2018-10-19T21:53:52.523Z,26.40
2018-10-19T21:55:56.395Z,27.30
2018-10-19T21:58:00.182Z,25.67
2018-10-19T22:00:03.975Z,28.10
2018-10-19T22:02:07.701Z,26.87
2018-10-19T22:04:11.417Z,29.30
2018-10-19T22:06:15.185Z,29.20
2018-10-19T22:08:19.747Z,27.23
2018-10-19T22:10:23.497Z,26.20
2018-10-19T22:12:27.225Z,25.50
2018-10-19T22:14:30.909Z,26.10
2018-10-19T22:16:34.608Z,25.80
2018-10-19T22:18:38.284Z,27.70
2018-10-19T22:20:41.993Z,25.20
2018-10-19T22:22:45.752Z,25.83
2018-10-19T22:24:49.455Z,25.97
2018-10-19T22:26:53.219Z,25.20
2018-10-19T22:28:56.924Z,26.20
2018-10-19T22:31:00.685Z,26.03
2018-10-19T22:33:04.335Z,25.80
2018-10-19T22:35:08.280Z,28.57
2018-10-19T22:37:11.970Z,37.40
2018-10-19T22:39:15.657Z,49.53
2018-10-19T22:41:19.742Z,64.10
2018-10-19T22:43:23.414Z,61.20
2018-10-19T22:45:28.049Z,54.40
2018-10-19T22:47:31.797Z,51.00
2018-10-19T22:49:35.552Z,42.37
2018-10-19T22:51:39.348Z,33.43
2018-10-19T22:53:43.075Z,29.43
2018-10-19T22:55:46.782Z,28.73
2018-10-19T22:57:50.492Z,30.40
2018-10-19T22:59:54.396Z,29.37
2018-10-19T23:01:58.161Z,28.40
2018-10-19T23:04:01.992Z,27.00
2018-10-19T23:06:06.161Z,23.47
2018-10-19T23:08:09.843Z,25.30
2018-10-19T23:10:13.861Z,24.33
2018-10-19T23:12:17.606Z,24.73
2018-10-19T23:14:21.297Z,26.47
2018-10-19T23:16:25.371Z,25.30
2018-10-19T23:18:29.077Z,26.97
2018-10-19T23:20:34.351Z,26.80
2018-10-19T23:22:38.846Z,26.07
2018-10-19T23:24:42.698Z,27.97
2018-10-19T23:26:46.619Z,27.23
2018-10-19T23:28:52.137Z,26.03
2018-10-19T23:30:56.752Z,25.67
2018-10-19T23:33:00.524Z,25.07
2018-10-19T23:35:04.428Z,26.13
2018-10-19T23:37:08.143Z,26.40
2018-10-19T23:39:12.971Z,27.13
2018-10-19T23:41:17.810Z,26.37
2018-10-19T23:43:21.748Z,26.07
2018-10-19T23:45:25.713Z,23.97
2018-10-19T23:47:29.848Z,23.67
2018-10-19T23:49:33.535Z,25.17
2018-10-19T23:51:37.287Z,25.00
2018-10-19T23:53:41.023Z,25.30
2018-10-19T23:55:44.765Z,24.43
2018-10-19T23:57:48.609Z,24.80
2018-10-19T23:59:52.303Z,24.77
